Time;durP1;ratioP1;P1;durP2;ratioP2;P2;SDS_P1;SDS_P2;PMS_P1;PMS_P2;Temp;Humidity;BMP_temperature;BMP_pressure;BME280_temperature;BME280_humidity;BME280_pressure;Samples;Min_cycle;Max_cycle;Signal;HPM_P1;HPM_P2
2023/02/07 00:01:29;;;;;;;43.83;15.95;;;1.10;99.90;;;;;;6184593;23;20017;-72
2023/02/07 00:03:56;;;;;;;34.05;15.77;;;1.00;99.90;;;;;;6184999;23;20028;-72
2023/02/07 00:06:31;;;;;;;38.00;15.80;;;0.90;99.90;;;;;;6184825;23;20087;-73
2023/02/07 00:09:01;;;;;;;36.53;14.93;;;0.80;99.90;;;;;;6186720;23;20013;-72
2023/02/07 00:11:27;;;;;;;42.53;16.45;;;0.80;99.90;;;;;;6184910;23;20370;-72
2023/02/07 00:13:54;;;;;;;37.85;15.75;;;0.60;99.90;;;;;;6186831;23;20013;-72
2023/02/07 00:16:21;;;;;;;30.77;15.73;;;0.70;99.90;;;;;;6186757;23;20012;-72
2023/02/07 00:18:47;;;;;;;35.80;16.30;;;0.70;99.90;;;;;;6186780;23;20082;-72
2023/02/07 00:21:16;;;;;;;40.15;17.33;;;0.80;99.90;;;;;;6186697;23;20012;-72
2023/02/07 00:23:42;;;;;;;40.03;18.65;;;0.90;99.90;;;;;;6184748;23;20088;-72
2023/02/07 00:26:09;;;;;;;42.38;18.88;;;1.00;99.90;;;;;;6184895;23;20013;-72
2023/02/07 00:28:35;;;;;;;44.80;20.30;;;1.00;99.90;;;;;;6184676;23;20071;-72
2023/02/07 00:31:12;;;;;;;41.75;18.88;;;1.20;99.90;;;;;;6160011;23;20501;-72
2023/02/07 00:33:40;;;;;;;34.63;19.48;;;1.30;99.90;;;;;;6186767;23;20358;-72
2023/02/07 00:36:08;;;;;;;32.97;17.42;;;1.30;99.90;;;;;;6184797;23;20346;-73
2023/02/07 00:38:34;;;;;;;36.08;18.65;;;1.30;99.90;;;;;;6186803;23;20013;-73
2023/02/07 00:41:00;;;;;;;35.65;18.50;;;1.40;99.90;;;;;;6184974;23;20354;-72
2023/02/07 00:43:26;;;;;;;42.35;19.08;;;1.40;99.90;;;;;;6186571;23;20016;-73
2023/02/07 00:45:52;;;;;;;43.97;20.10;;;1.50;99.90;;;;;;6184905;23;20017;-72
2023/02/07 00:48:18;;;;;;;39.38;19.42;;;1.60;99.90;;;;;;6185272;23;20059;-72
2023/02/07 00:50:43;;;;;;;50.78;21.35;;;1.60;99.90;;;;;;6185459;23;20013;-72
2023/02/07 00:53:09;;;;;;;38.60;19.25;;;1.50;99.90;;;;;;6186750;23;20315;-72
2023/02/07 00:55:34;;;;;;;39.97;20.00;;;1.50;99.90;;;;;;6186195;23;20472;-72
2023/02/07 00:58:00;;;;;;;42.58;21.02;;;1.60;99.90;;;;;;6186478;23;20009;-72
2023/02/07 01:00:26;;;;;;;45.78;20.80;;;1.60;99.90;;;;;;6184648;23;20013;-72
2023/02/07 01:02:51;;;;;;;42.15;19.45;;;1.50;99.90;;;;;;6184613;23;20334;-72
2023/02/07 01:05:17;;;;;;;46.15;21.08;;;1.50;99.90;;;;;;6184768;23;20021;-72
2023/02/07 01:07:42;;;;;;;38.40;19.42;;;1.60;99.90;;;;;;6186134;23;20009;-72
2023/02/07 01:10:09;;;;;;;43.55;20.88;;;1.50;99.90;;;;;;6186058;23;20005;-72
2023/02/07 01:12:35;;;;;;;39.67;21.08;;;1.60;99.90;;;;;;6186468;23;20009;-72
2023/02/07 01:15:01;;;;;;;44.20;19.95;;;1.50;99.90;;;;;;6184560;23;20048;-72
2023/02/07 01:17:26;;;;;;;38.22;20.65;;;1.50;99.90;;;;;;6186340;23;20024;-73
2023/02/07 01:19:57;;;;;;;40.53;19.95;;;1.40;99.90;;;;;;6184477;23;20005;-73
2023/02/07 01:22:23;;;;;;;50.05;21.48;;;1.40;99.90;;;;;;6186378;23;20055;-72
2023/02/07 01:24:49;;;;;;;41.40;20.83;;;1.50;99.90;;;;;;6184398;23;20091;-72
2023/02/07 01:27:14;;;;;;;46.20;21.70;;;1.40;99.90;;;;;;6186018;23;20017;-72
2023/02/07 01:29:40;;;;;;;42.13;20.27;;;1.30;99.90;;;;;;6184464;23;20013;-72
2023/02/07 01:32:05;;;;;;;44.95;21.95;;;1.30;99.90;;;;;;6184411;23;20016;-72
2023/02/07 01:34:31;;;;;;;44.60;22.30;;;1.40;99.90;;;;;;6186333;23;20024;-72
2023/02/07 01:36:57;;;;;;;43.50;20.92;;;1.40;99.90;;;;;;6186312;23;20056;-72
2023/02/07 01:39:22;;;;;;;47.08;22.42;;;1.30;99.90;;;;;;6184477;23;20024;-72
2023/02/07 01:41:48;;;;;;;44.97;21.95;;;1.30;99.90;;;;;;6186330;23;20013;-72
2023/02/07 01:44:22;;;;;;;48.63;22.00;;;1.30;99.90;;;;;;6186204;23;20020;-72
2023/02/07 01:46:50;;;;;;;45.60;20.23;;;1.30;99.90;;;;;;6186232;23;20044;-72
2023/02/07 01:49:20;;;;;;;35.80;20.00;;;1.10;99.90;;;;;;6186397;23;20009;-72
2023/02/07 01:51:51;;;;;;;42.42;21.95;;;1.20;99.90;;;;;;6185873;23;20017;-72
2023/02/07 01:54:18;;;;;;;41.10;20.13;;;1.20;99.90;;;;;;6186253;23;20016;-73
2023/02/07 01:56:49;;;;;;;46.30;22.35;;;1.10;99.90;;;;;;6186253;23;20340;-72
2023/02/07 01:59:16;;;;;;;41.67;22.35;;;1.30;99.90;;;;;;6186290;23;20013;-73
2023/02/07 02:01:43;;;;;;;46.92;22.17;;;1.30;99.90;;;;;;6186437;23;20040;-72
2023/02/07 02:04:09;;;;;;;43.05;22.23;;;1.30;99.90;;;;;;6187970;23;20013;-72
2023/02/07 02:06:35;;;;;;;42.97;23.13;;;1.20;99.90;;;;;;6186046;23;20023;-72
2023/02/07 02:09:07;;;;;;;43.38;22.48;;;1.20;99.90;;;;;;6187902;23;20045;-72
2023/02/07 02:11:41;;;;;;;45.97;22.33;;;1.30;99.90;;;;;;6186142;23;20063;-72
2023/02/07 02:14:25;;;;;;;43.05;23.02;;;1.20;99.90;;;;;;6187934;23;20060;-72
2023/02/07 02:17:18;;;;;;;43.58;22.20;;;1.20;99.90;;;;;;6187579;23;20449;-72
2023/02/07 02:20:21;;;;;;;47.03;22.40;;;1.20;99.90;;;;;;6186571;23;20021;-72
2023/02/07 02:23:06;;;;;;;45.00;23.48;;;1.20;99.90;;;;;;6187484;23;20438;-72
2023/02/07 02:25:34;;;;;;;42.67;21.30;;;1.00;99.90;;;;;;6185991;23;20021;-72
2023/02/07 02:28:21;;;;;;;40.58;21.15;;;1.00;99.90;;;;;;6185770;23;20021;-72
2023/02/07 02:30:56;;;;;;;43.63;22.20;;;1.10;99.90;;;;;;6187813;23;20342;-72
2023/02/07 02:33:42;;;;;;;47.47;22.38;;;1.00;99.90;;;;;;6187705;23;20335;-72
2023/02/07 02:36:22;;;;;;;42.83;21.33;;;1.00;99.90;;;;;;6185932;23;20016;-72
2023/02/07 02:39:08;;;;;;;48.08;23.00;;;0.90;99.90;;;;;;6187690;23;20009;-72
2023/02/07 02:41:41;;;;;;;42.53;20.02;;;0.90;99.90;;;;;;6185893;23;20024;-72
2023/02/07 02:44:12;;;;;;;45.85;20.73;;;0.90;99.90;;;;;;6188239;23;20008;-72
2023/02/07 02:46:40;;;;;;;41.85;20.45;;;0.70;99.90;;;;;;6187704;23;20009;-72
2023/02/07 02:49:09;;;;;;;34.67;18.80;;;0.50;99.90;;;;;;6187754;23;20378;-72
2023/02/07 02:51:34;;;;;;;37.10;19.40;;;0.30;99.90;;;;;;6187517;23;20022;-72
2023/02/07 02:54:01;;;;;;;40.35;19.73;;;0.00;99.90;;;;;;6187530;23;20013;-72
2023/02/07 02:56:43;;;;;;;37.33;18.90;;;-0.10;99.90;;;;;;6185684;23;20021;-72
2023/02/07 02:59:30;;;;;;;37.05;19.88;;;-0.10;99.90;;;;;;6187578;23;20018;-72
2023/02/07 03:02:21;;;;;;;33.88;18.13;;;-0.10;99.90;;;;;;6185696;23;20009;-72
2023/02/07 03:05:13;;;;;;;32.88;17.90;;;-0.30;99.90;;;;;;6185612;23;20131;-72
2023/02/07 03:07:38;;;;;;;44.40;20.77;;;-0.40;99.90;;;;;;6187093;23;20386;-72
2023/02/07 03:10:08;;;;;;;36.72;20.02;;;-0.50;99.90;;;;;;6185558;23;20013;-72
2023/02/07 03:12:45;;;;;;;36.05;18.67;;;-0.30;99.90;;;;;;6187330;23;20017;-72
2023/02/07 03:15:20;;;;;;;38.63;18.65;;;-0.40;99.90;;;;;;6185095;23;20019;-72
2023/02/07 03:18:25;;;;;;;32.65;17.25;;;-0.60;99.90;;;;;;6187342;23;20311;-72
2023/02/07 03:21:01;;;;;;;45.72;22.80;;;-0.70;99.90;;;;;;6187084;23;20438;-72
2023/02/07 03:23:29;;;;;;;39.20;19.65;;;-0.80;99.90;;;;;;6187240;23;20071;-72
2023/02/07 03:25:57;;;;;;;42.50;20.85;;;-0.60;99.90;;;;;;6185279;23;20022;-73
2023/02/07 03:28:25;;;;;;;39.88;20.80;;;-0.70;99.90;;;;;;6185160;23;20021;-72
2023/02/07 03:30:53;;;;;;;41.85;20.95;;;-0.50;99.90;;;;;;6185273;23;20013;-72
2023/02/07 03:33:19;;;;;;;45.80;22.88;;;-0.50;99.90;;;;;;6186714;23;20016;-72
2023/02/07 03:36:07;;;;;;;34.00;18.88;;;-0.40;99.90;;;;;;6185368;23;20446;-72
2023/02/07 03:38:33;;;;;;;34.78;20.00;;;-0.50;99.90;;;;;;6160432;23;20382;-72
2023/02/07 03:41:06;;;;;;;37.83;19.20;;;-0.70;99.90;;;;;;6185244;23;20016;-72
2023/02/07 03:43:33;;;;;;;36.80;19.42;;;-0.80;99.90;;;;;;6186962;23;20009;-72
2023/02/07 03:45:59;;;;;;;33.35;17.98;;;-0.90;99.90;;;;;;6187058;23;20088;-72
2023/02/07 03:48:25;;;;;;;29.92;17.42;;;-1.00;99.90;;;;;;6185485;23;20045;-72
2023/02/07 03:50:51;;;;;;;33.50;18.17;;;-1.10;99.90;;;;;;6187125;23;20013;-72
2023/02/07 03:53:19;;;;;;;30.42;17.15;;;-1.20;99.90;;;;;;6186977;23;20009;-72
2023/02/07 03:55:44;;;;;;;32.13;17.48;;;-1.20;99.90;;;;;;6185042;23;20013;-72
2023/02/07 03:58:10;;;;;;;31.52;16.45;;;-1.20;99.90;;;;;;6186055;23;20013;-72
2023/02/07 04:00:36;;;;;;;34.65;18.45;;;-1.30;99.90;;;;;;6186992;23;20434;-72
2023/02/07 04:03:03;;;;;;;28.50;17.50;;;-1.50;99.90;;;;;;6185111;23;20041;-72
2023/02/07 04:05:28;;;;;;;33.72;17.63;;;-1.60;99.90;;;;;;6185106;23;20024;-72
2023/02/07 04:07:54;;;;;;;35.85;19.13;;;-1.60;99.90;;;;;;6187105;23;20009;-72
2023/02/07 04:10:20;;;;;;;31.38;16.98;;;-1.50;99.90;;;;;;6187022;23;20016;-72
2023/02/07 04:12:45;;;;;;;31.63;16.38;;;-1.50;99.90;;;;;;6187089;23;20308;-72
2023/02/07 04:15:11;;;;;;;33.95;17.60;;;-1.80;99.90;;;;;;6186922;23;20357;-72
2023/02/07 04:17:37;;;;;;;32.58;18.45;;;-1.90;99.90;;;;;;6185073;23;20063;-72
2023/02/07 04:20:04;;;;;;;32.80;18.30;;;-1.90;99.90;;;;;;6186900;23;20005;-72
2023/02/07 04:22:30;;;;;;;33.17;17.23;;;-1.90;99.90;;;;;;6184865;23;20017;-72
2023/02/07 04:24:56;;;;;;;39.13;18.63;;;-2.00;99.90;;;;;;6184597;23;20506;-72
2023/02/07 04:27:22;;;;;;;35.60;17.75;;;-2.00;99.90;;;;;;6184924;23;20048;-72
2023/02/07 04:29:49;;;;;;;31.67;17.40;;;-1.90;99.90;;;;;;6186693;23;20021;-72
2023/02/07 04:32:14;;;;;;;32.33;16.83;;;-2.00;99.90;;;;;;6184810;23;20013;-72
2023/02/07 04:34:40;;;;;;;34.95;19.75;;;-2.00;99.90;;;;;;6184754;23;20021;-72
2023/02/07 04:37:06;;;;;;;36.78;18.63;;;-2.00;99.90;;;;;;6186511;23;20100;-72
2023/02/07 04:39:31;;;;;;;32.75;18.25;;;-1.80;99.90;;;;;;6186480;23;20059;-72
2023/02/07 04:41:57;;;;;;;28.42;16.70;;;-1.80;99.90;;;;;;6186554;23;20009;-72
2023/02/07 04:44:23;;;;;;;31.08;17.48;;;-2.00;99.90;;;;;;6159702;23;20088;-72
2023/02/07 04:46:48;;;;;;;29.15;16.52;;;-2.20;99.90;;;;;;6186444;23;20020;-72
2023/02/07 04:49:17;;;;;;;35.30;16.92;;;-2.10;99.90;;;;;;6185026;23;20016;-72
2023/02/07 04:51:43;;;;;;;28.83;15.73;;;-2.30;99.90;;;;;;6186561;23;20016;-72
2023/02/07 04:54:08;;;;;;;32.03;17.83;;;-2.40;99.90;;;;;;6186475;23;20084;-72
2023/02/07 04:56:34;;;;;;;33.47;17.35;;;-2.30;99.90;;;;;;6185082;23;20017;-72
2023/02/07 04:59:00;;;;;;;35.60;17.95;;;-2.30;99.90;;;;;;6184640;23;20017;-72
2023/02/07 05:01:25;;;;;;;32.20;18.35;;;-2.30;99.90;;;;;;6186051;23;20014;-72
2023/02/07 05:03:51;;;;;;;35.20;19.05;;;-2.30;99.90;;;;;;6184541;23;20033;-72
2023/02/07 05:06:16;;;;;;;31.45;17.92;;;-2.30;99.90;;;;;;6159979;23;20016;-72
2023/02/07 05:08:42;;;;;;;32.47;17.88;;;-2.30;99.90;;;;;;6184604;23;20009;-72
2023/02/07 05:11:08;;;;;;;30.55;15.82;;;-2.30;99.90;;;;;;6184628;23;20382;-72
2023/02/07 05:13:33;;;;;;;33.15;18.55;;;-2.40;99.90;;;;;;6186422;23;20024;-72
2023/02/07 05:16:02;;;;;;;35.53;19.10;;;-2.40;99.90;;;;;;6185035;23;20021;-72
2023/02/07 05:18:28;;;;;;;41.20;21.73;;;-2.40;99.90;;;;;;6186377;23;20013;-72
2023/02/07 05:20:54;;;;;;;68.47;19.42;;;-2.50;99.90;;;;;;6184529;23;20136;-72
2023/02/07 05:23:20;;;;;;;65.40;26.92;;;-2.60;99.90;;;;;;6186315;23;20025;-72
2023/02/07 05:25:47;;;;;;;39.15;20.10;;;-2.80;99.90;;;;;;6186552;23;20392;-72
2023/02/07 05:28:13;;;;;;;35.55;19.85;;;-2.70;99.90;;;;;;6186078;23;20040;-72
2023/02/07 05:30:39;;;;;;;38.60;20.45;;;-2.70;99.90;;;;;;6184521;23;20018;-72
2023/02/07 05:33:05;;;;;;;37.60;19.65;;;-2.70;99.90;;;;;;6184465;23;20071;-72
2023/02/07 05:35:34;;;;;;;33.58;18.65;;;-2.80;99.90;;;;;;6184799;23;20080;-73
2023/02/07 05:38:00;;;;;;;28.85;16.30;;;-2.80;99.90;;;;;;6185610;23;20087;-73
2023/02/07 05:40:26;;;;;;;50.60;24.65;;;-2.80;99.90;;;;;;6188286;23;20036;-73
2023/02/07 05:42:52;;;;;;;62.08;28.85;;;-2.70;99.90;;;;;;6188244;23;20009;-73
2023/02/07 05:45:20;;;;;;;38.88;20.08;;;-2.80;99.90;;;;;;6186247;23;20084;-72
2023/02/07 05:47:45;;;;;;;41.30;21.30;;;-2.90;99.90;;;;;;6186331;23;20084;-73
2023/02/07 05:50:11;;;;;;;31.27;17.73;;;-2.90;99.90;;;;;;6188334;23;20040;-74
2023/02/07 05:52:36;;;;;;;38.03;19.42;;;-3.00;99.90;;;;;;6186318;23;20016;-73
2023/02/07 05:55:05;;;;;;;37.38;19.35;;;-2.90;99.90;;;;;;6187724;23;20009;-72
2023/02/07 05:57:31;;;;;;;41.13;19.77;;;-2.80;99.90;;;;;;6161527;23;20330;-71
2023/02/07 05:59:57;;;;;;;44.28;23.23;;;-2.70;99.90;;;;;;6186240;23;20013;-72
2023/02/07 06:02:23;;;;;;;56.17;29.27;;;-2.80;99.90;;;;;;6188041;23;20012;-71
2023/02/07 06:04:49;;;;;;;46.85;24.90;;;-2.80;99.90;;;;;;6186549;23;20016;-72
2023/02/07 06:07:14;;;;;;;40.80;23.17;;;-2.80;99.90;;;;;;6187889;23;20009;-72
2023/02/07 06:09:40;;;;;;;44.10;23.02;;;-2.80;99.90;;;;;;6186564;23;20036;-72
2023/02/07 06:12:06;;;;;;;49.10;24.52;;;-2.80;99.90;;;;;;6187973;23;20307;-72
2023/02/07 06:14:31;;;;;;;59.65;30.27;;;-2.80;99.90;;;;;;6187981;23;20024;-72
2023/02/07 06:16:57;;;;;;;83.18;39.00;;;-2.60;99.90;;;;;;6186122;23;20453;-72
2023/02/07 06:19:23;;;;;;;77.85;34.72;;;-2.60;99.90;;;;;;6186145;23;20006;-71
2023/02/07 06:21:48;;;;;;;70.90;35.17;;;-2.60;99.90;;;;;;6188023;23;20064;-76
2023/02/07 06:24:14;;;;;;;80.72;38.20;;;-2.70;99.90;;;;;;6187786;23;20013;-73
2023/02/07 06:26:41;;;;;;;72.10;35.10;;;-2.70;99.90;;;;;;6188295;23;20017;-73
2023/02/07 06:29:06;;;;;;;68.45;31.10;;;-2.70;99.90;;;;;;6185850;23;20461;-76
2023/02/07 06:31:32;;;;;;;35.92;21.52;;;-2.70;99.90;;;;;;6187617;23;20017;-76
2023/02/07 06:33:58;;;;;;;49.55;25.52;;;-2.60;99.90;;;;;;6185879;23;20020;-76
2023/02/07 06:36:23;;;;;;;43.92;24.15;;;-2.50;99.90;;;;;;6187740;23;20019;-76
2023/02/07 06:38:53;;;;;;;37.90;22.67;;;-2.40;99.90;;;;;;6185776;23;20023;-76
2023/02/07 06:41:19;;;;;;;43.10;22.60;;;-2.30;99.90;;;;;;6185796;23;20393;-75
2023/02/07 06:43:44;;;;;;;41.25;23.10;;;-2.10;99.90;;;;;;6185710;23;20080;-75
2023/02/07 06:46:10;;;;;;;44.28;23.15;;;-2.10;99.90;;;;;;6185702;23;20013;-75
2023/02/07 06:48:36;;;;;;;39.53;22.30;;;-2.10;99.90;;;;;;6185542;23;20052;-75
2023/02/07 06:51:02;;;;;;;40.90;23.30;;;-2.00;99.90;;;;;;6185752;23;20079;-75
2023/02/07 06:53:28;;;;;;;42.83;22.70;;;-1.90;99.90;;;;;;6160847;23;20009;-76
2023/02/07 06:55:54;;;;;;;43.05;24.90;;;-1.90;99.90;;;;;;6185660;23;20020;-75
2023/02/07 06:58:20;;;;;;;47.33;23.55;;;-1.80;99.90;;;;;;6185638;23;20017;-75
2023/02/07 07:00:46;;;;;;;43.70;23.80;;;-1.80;99.90;;;;;;6185696;23;20084;-76
2023/02/07 07:03:13;;;;;;;39.70;22.52;;;-1.80;99.90;;;;;;6187417;23;20017;-76
2023/02/07 07:05:39;;;;;;;42.30;24.23;;;-1.70;99.90;;;;;;6187606;23;20099;-76
2023/02/07 07:08:05;;;;;;;41.67;22.77;;;-1.70;99.90;;;;;;6187169;23;20017;-76
2023/02/07 07:10:31;;;;;;;45.67;26.00;;;-1.70;99.90;;;;;;6187059;23;20012;-76
2023/02/07 07:12:57;;;;;;;47.67;26.00;;;-1.60;99.90;;;;;;6187401;23;20009;-76
2023/02/07 07:15:23;;;;;;;46.95;24.98;;;-1.60;99.90;;;;;;6185564;23;20438;-76
2023/02/07 07:17:48;;;;;;;42.58;25.88;;;-1.50;99.90;;;;;;6186992;23;20512;-76
2023/02/07 07:20:14;;;;;;;41.83;24.65;;;-1.50;99.90;;;;;;6187130;23;20493;-75
2023/02/07 07:22:40;;;;;;;42.05;24.13;;;-1.50;99.90;;;;;;6185814;23;20041;-76
2023/02/07 07:25:06;;;;;;;40.95;24.85;;;-1.40;99.90;;;;;;6160532;23;20032;-76
2023/02/07 07:27:32;;;;;;;44.45;26.60;;;-1.40;99.90;;;;;;6185180;23;20021;-75
2023/02/07 07:29:57;;;;;;;45.03;24.88;;;-1.40;99.90;;;;;;6187317;23;20013;-76
2023/02/07 07:32:23;;;;;;;38.95;23.90;;;-1.30;99.90;;;;;;6185841;23;20351;-75
2023/02/07 07:34:49;;;;;;;40.83;24.17;;;-1.40;99.90;;;;;;6185618;23;20335;-75
2023/02/07 07:37:15;;;;;;;41.78;23.73;;;-1.30;99.90;;;;;;6185321;23;20020;-76
2023/02/07 07:39:42;;;;;;;42.35;25.85;;;-1.20;99.90;;;;;;6187366;23;20013;-76
2023/02/07 07:42:08;;;;;;;42.05;25.30;;;-1.30;99.90;;;;;;6187273;23;20067;-76
2023/02/07 07:44:33;;;;;;;40.45;24.48;;;-1.20;99.90;;;;;;6185301;23;20017;-74
2023/02/07 07:46:59;;;;;;;42.30;24.23;;;-1.20;99.90;;;;;;6185389;23;20025;-73
2023/02/07 07:49:25;;;;;;;42.65;24.35;;;-1.10;99.90;;;;;;6185478;23;20013;-74
2023/02/07 07:51:50;;;;;;;39.83;24.73;;;-1.10;99.90;;;;;;6185415;23;20009;-74
2023/02/07 07:54:16;;;;;;;44.35;24.70;;;-1.00;99.90;;;;;;6185143;23;20016;-74
2023/02/07 07:56:42;;;;;;;41.00;25.27;;;-1.00;99.90;;;;;;6186557;23;20013;-74
2023/02/07 07:59:07;;;;;;;43.50;26.05;;;-0.90;99.90;;;;;;6185433;23;20020;-74
2023/02/07 08:01:33;;;;;;;45.42;24.95;;;-1.00;99.90;;;;;;6186844;23;20009;-75
2023/02/07 08:03:59;;;;;;;42.10;24.63;;;-0.90;99.90;;;;;;6186836;23;20040;-74
2023/02/07 08:06:25;;;;;;;44.65;25.13;;;-0.90;99.90;;;;;;6185162;23;20017;-74
2023/02/07 08:08:51;;;;;;;37.83;24.45;;;-0.80;99.90;;;;;;6186797;23;20005;-74
2023/02/07 08:11:17;;;;;;;46.45;26.67;;;-0.70;99.90;;;;;;6186747;23;20016;-74
2023/02/07 08:13:42;;;;;;;42.92;26.05;;;-0.80;99.90;;;;;;6186414;23;20012;-74
2023/02/07 08:16:09;;;;;;;42.08;25.15;;;-0.90;99.90;;;;;;6187111;23;20009;-74
2023/02/07 08:18:36;;;;;;;61.95;25.55;;;-0.80;99.90;;;;;;6186692;23;20009;-74
2023/02/07 08:21:02;;;;;;;44.67;25.73;;;-0.80;99.90;;;;;;6186800;23;20009;-74
2023/02/07 08:23:27;;;;;;;44.47;24.77;;;-0.80;99.90;;;;;;6185237;23;20015;-74
2023/02/07 08:25:53;;;;;;;42.13;24.52;;;-0.60;99.90;;;;;;6186782;23;20117;-74
2023/02/07 08:28:19;;;;;;;41.15;24.02;;;-0.60;99.90;;;;;;6186450;23;20013;-74
2023/02/07 08:30:46;;;;;;;40.83;23.80;;;-0.70;99.90;;;;;;6186789;23;20092;-74
2023/02/07 08:33:12;;;;;;;41.63;23.17;;;-0.60;99.90;;;;;;6186791;23;20391;-74
2023/02/07 08:35:39;;;;;;;41.30;23.45;;;-0.60;99.90;;;;;;6185056;23;20013;-74
2023/02/07 08:38:05;;;;;;;40.58;23.42;;;-0.70;99.90;;;;;;6184838;23;20024;-74
2023/02/07 08:40:30;;;;;;;35.63;22.60;;;-0.50;99.90;;;;;;6186942;23;20017;-74
2023/02/07 08:42:56;;;;;;;38.72;24.25;;;-0.60;99.90;;;;;;6184836;23;20009;-74
2023/02/07 08:45:22;;;;;;;39.20;23.60;;;-0.50;99.90;;;;;;6186470;23;20064;-74
2023/02/07 08:47:48;;;;;;;37.35;22.63;;;-0.30;99.90;;;;;;6184678;23;20088;-74
2023/02/07 08:50:14;;;;;;;34.30;22.40;;;-0.30;99.90;;;;;;6186331;23;20048;-74
2023/02/07 08:52:40;;;;;;;38.30;22.95;;;-0.20;99.90;;;;;;6186558;23;20041;-74
2023/02/07 08:55:06;;;;;;;37.25;23.90;;;-0.20;99.90;;;;;;6186562;23;20020;-74
2023/02/07 08:57:33;;;;;;;35.75;22.73;;;0.10;99.90;;;;;;6184623;23;20012;-74
2023/02/07 08:59:59;;;;;;;35.40;22.55;;;0.00;99.90;;;;;;6186119;23;20017;-74
2023/02/07 09:02:25;;;;;;;37.80;23.00;;;0.10;99.90;;;;;;6186368;23;20089;-74
2023/02/07 09:04:51;;;;;;;28.67;19.42;;;0.20;99.90;;;;;;6186033;23;20064;-72
2023/02/07 09:07:17;;;;;;;30.83;20.75;;;0.40;99.90;;;;;;6184511;23;20013;-73
2023/02/07 09:09:43;;;;;;;34.70;21.92;;;0.40;99.90;;;;;;6186488;23;20084;-73
2023/02/07 09:12:10;;;;;;;30.52;20.63;;;0.50;99.90;;;;;;6185343;23;20085;-73
2023/02/07 09:14:36;;;;;;;29.65;20.00;;;0.70;99.90;;;;;;6188520;23;20020;-73
2023/02/07 09:17:02;;;;;;;32.95;20.73;;;0.70;99.90;;;;;;6188598;23;20329;-73
2023/02/07 09:19:28;;;;;;;28.00;18.98;;;0.80;99.90;;;;;;6188412;23;20485;-73
2023/02/07 09:21:54;;;;;;;26.52;19.23;;;0.80;99.90;;;;;;6161870;23;20017;-73
2023/02/07 09:24:20;;;;;;;31.00;20.02;;;1.00;99.90;;;;;;6161559;23;20025;-73
2023/02/07 09:26:45;;;;;;;26.80;18.10;;;1.00;99.90;;;;;;6187973;23;20435;-73
2023/02/07 09:29:13;;;;;;;23.95;16.83;;;1.10;99.90;;;;;;6161495;23;20044;-73
2023/02/07 09:31:39;;;;;;;27.42;18.00;;;1.20;99.90;;;;;;6188257;23;20013;-72
2023/02/07 09:34:04;;;;;;;25.02;17.15;;;1.30;99.90;;;;;;6188359;23;20016;-72
2023/02/07 09:36:31;;;;;;;22.90;16.42;;;1.40;99.90;;;;;;6186443;23;20461;-72
2023/02/07 09:38:57;;;;;;;23.90;16.67;;;1.50;99.90;;;;;;6186316;23;20021;-72
2023/02/07 09:41:40;;;;;;;22.73;15.95;;;1.50;99.90;;;;;;6188302;23;20017;-72
2023/02/07 09:44:46;;;;;;;22.77;16.23;;;1.60;99.90;;;;;;6187901;23;20013;-72
2023/02/07 09:47:21;;;;;;;21.85;15.38;;;1.70;99.90;;;;;;6188216;23;20009;-72
2023/02/07 09:49:59;;;;;;;21.05;15.52;;;1.70;99.90;;;;;;6186247;23;20044;-72
2023/02/07 09:52:43;;;;;;;24.92;15.90;;;1.70;99.90;;;;;;6186314;23;20051;-72
2023/02/07 09:55:22;;;;;;;21.33;15.52;;;1.80;99.90;;;;;;6186356;23;20020;-72
2023/02/07 09:57:54;;;;;;;24.10;16.17;;;2.00;99.90;;;;;;6186539;23;20017;-72
2023/02/07 10:00:25;;;;;;;21.05;15.23;;;2.10;99.90;;;;;;6188303;23;20395;-72
2023/02/07 10:03:21;;;;;;;21.58;14.18;;;2.20;99.90;;;;;;6188166;23;20048;-73
2023/02/07 10:06:06;;;;;;;22.75;14.48;;;2.40;99.90;;;;;;6188236;23;20016;-72
2023/02/07 10:08:33;;;;;;;22.48;14.73;;;2.50;99.90;;;;;;6188026;23;20016;-73
2023/02/07 10:11:17;;;;;;;20.63;14.27;;;2.70;99.90;;;;;;6186183;23;20020;-72
2023/02/07 10:14:02;;;;;;;20.13;14.40;;;2.80;99.90;;;;;;6186103;23;20025;-72
2023/02/07 10:16:49;;;;;;;22.55;14.43;;;2.90;99.90;;;;;;6187854;23;20020;-72
2023/02/07 10:19:21;;;;;;;20.80;14.30;;;2.80;99.90;;;;;;6186084;23;20016;-72
2023/02/07 10:22:03;;;;;;;23.42;14.88;;;2.90;99.90;;;;;;6186047;23;20017;-72
2023/02/07 10:24:53;;;;;;;23.02;15.23;;;3.10;99.90;;;;;;6185736;23;20013;-73
2023/02/07 10:27:51;;;;;;;22.17;14.88;;;3.30;99.90;;;;;;6187558;23;20021;-73
2023/02/07 10:30:29;;;;;;;18.88;15.10;;;3.40;99.90;;;;;;6136244;23;20028;-73
2023/02/07 10:33:01;;;;;;;23.77;15.18;;;3.40;99.90;;;;;;6187746;23;20019;-72
2023/02/07 10:35:35;;;;;;;21.98;14.45;;;3.20;99.90;;;;;;6187612;23;20013;-72
2023/02/07 10:38:02;;;;;;;23.35;15.48;;;3.20;99.90;;;;;;6185884;23;20088;-72
2023/02/07 10:40:30;;;;;;;19.52;14.27;;;3.00;99.90;;;;;;6187714;23;20009;-72
2023/02/07 10:43:16;;;;;;;21.83;14.27;;;3.10;99.90;;;;;;6187736;23;20009;-73
2023/02/07 10:45:42;;;;;;;22.33;14.15;;;3.10;99.90;;;;;;6185776;23;20035;-72
2023/02/07 10:48:13;;;;;;;22.85;14.45;;;3.10;99.90;;;;;;6161105;23;20009;-73
2023/02/07 10:50:39;;;;;;;23.95;14.70;;;3.00;99.90;;;;;;6161207;23;20016;-73
2023/02/07 10:53:05;;;;;;;22.00;14.63;;;2.90;99.90;;;;;;6186237;23;20088;-73
2023/02/07 10:55:45;;;;;;;24.20;15.18;;;2.90;99.90;;;;;;6185842;23;20052;-73
2023/02/07 10:58:16;;;;;;;25.65;16.20;;;3.00;99.90;;;;;;6161158;23;20023;-73
2023/02/07 11:00:47;;;;;;;24.75;15.23;;;3.00;99.90;;;;;;6185714;23;20020;-72
2023/02/07 11:03:22;;;;;;;24.80;15.27;;;3.00;99.90;;;;;;6187688;23;20009;-73
2023/02/07 11:05:54;;;;;;;23.23;15.13;;;3.10;99.90;;;;;;6161171;23;20017;-73
2023/02/07 11:08:21;;;;;;;22.08;14.80;;;3.30;99.90;;;;;;6187563;23;20061;-74
2023/02/07 11:10:48;;;;;;;23.60;15.75;;;3.30;99.90;;;;;;6160879;23;20020;-77
2023/02/07 11:13:28;;;;;;;23.73;14.30;;;3.20;99.90;;;;;;6185551;23;20084;-74
2023/02/07 11:16:06;;;;;;;;;;;3.10;99.90;;;;;;6161258;23;20013;-74
2023/02/07 11:18:52;;;;;;;24.58;16.30;;;3.10;99.90;;;;;;6185536;23;19995;-74
2023/02/07 11:21:28;;;;;;;22.90;15.75;;;3.10;99.90;;;;;;6160802;23;20092;-74
2023/02/07 11:23:59;;;;;;;24.48;15.75;;;3.10;99.90;;;;;;6186978;23;20434;-74
2023/02/07 11:26:25;;;;;;;23.83;15.15;;;3.20;99.90;;;;;;6185547;23;20009;-75
2023/02/07 11:28:53;;;;;;;25.83;16.55;;;3.20;99.90;;;;;;6185564;23;20032;-75
2023/02/07 11:31:26;;;;;;;22.90;16.17;;;3.20;99.90;;;;;;6160498;23;20080;-74
2023/02/07 11:33:52;;;;;;;24.08;15.20;;;3.30;99.90;;;;;;6187098;23;20099;-73
2023/02/07 11:36:27;;;;;;;22.65;14.77;;;3.30;99.90;;;;;;6185137;23;20020;-74
2023/02/07 11:38:55;;;;;;;26.17;16.05;;;3.30;99.90;;;;;;6185760;23;20020;-74
2023/02/07 11:41:24;;;;;;;23.73;15.38;;;3.30;99.90;;;;;;6187047;23;20338;-74
2023/02/07 11:44:13;;;;;;;25.05;15.63;;;3.30;99.90;;;;;;6185064;23;20083;-74
2023/02/07 11:46:42;;;;;;;24.33;15.45;;;3.60;99.90;;;;;;6160289;23;20045;-74
2023/02/07 11:49:19;;;;;;;26.70;16.98;;;3.50;99.90;;;;;;6187089;23;20350;-74
2023/02/07 11:51:49;;;;;;;25.70;16.67;;;3.50;99.90;;;;;;6187153;23;20065;-74
2023/02/07 11:54:15;;;;;;;23.98;14.57;;;3.60;99.90;;;;;;6185149;23;20017;-75
2023/02/07 11:56:44;;;;;;;23.73;15.43;;;3.60;99.90;;;;;;6160255;23;20469;-75
2023/02/07 11:59:23;;;;;;;23.80;16.27;;;3.70;99.90;;;;;;6186857;23;20056;-76
2023/02/07 12:01:57;;;;;;;21.85;14.73;;;3.80;99.90;;;;;;6160342;23;20346;-75
2023/02/07 12:04:37;;;;;;;23.80;14.77;;;3.90;99.90;;;;;;6160638;23;20017;-74
2023/02/07 12:07:03;;;;;;;20.80;14.23;;;3.90;99.90;;;;;;6187041;23;20371;-73
2023/02/07 12:09:39;;;;;;;24.42;14.60;;;4.00;99.90;;;;;;6185234;23;20020;-74
2023/02/07 12:12:14;;;;;;;22.20;14.15;;;4.20;99.90;;;;;;6187618;23;20013;-74
2023/02/07 12:14:45;;;;;;;19.88;14.85;;;4.10;99.90;;;;;;6185146;23;20427;-75
2023/02/07 12:17:19;;;;;;;23.42;14.73;;;4.30;99.90;;;;;;6184982;23;20024;-73
2023/02/07 12:19:54;;;;;;;22.50;14.90;;;4.30;99.90;;;;;;6184999;23;20009;-73
2023/02/07 12:22:27;;;;;;;20.90;13.93;;;4.20;99.90;;;;;;6185070;23;20009;-73
2023/02/07 12:24:56;;;;;;;20.92;15.05;;;4.20;99.90;;;;;;6159917;23;20474;-73
2023/02/07 12:27:29;;;;;;;20.13;14.18;;;4.20;99.90;;;;;;6184774;23;20338;-73
2023/02/07 12:30:14;;;;;;;19.80;14.50;;;4.20;99.90;;;;;;6186390;23;20519;-74
2023/02/07 12:33:11;;;;;;;21.15;14.27;;;4.30;99.90;;;;;;6184889;23;20021;-73
2023/02/07 12:35:47;;;;;;;21.02;14.52;;;4.30;99.90;;;;;;6121857;23;20037;-73
2023/02/07 12:38:28;;;;;;;20.20;13.48;;;4.50;99.90;;;;;;6186405;23;20059;-73
2023/02/07 12:40:59;;;;;;;21.27;14.57;;;4.30;99.90;;;;;;6186699;23;20020;-74
2023/02/07 12:43:28;;;;;;;19.45;13.40;;;4.50;99.90;;;;;;6184717;23;20342;-74
2023/02/07 12:46:00;;;;;;;20.95;13.35;;;4.60;99.90;;;;;;6159871;23;20020;-74